createdAt,value
2022-11-04T00:03:23.170Z,99848.09
2022-11-04T00:08:24.712Z,99854.81
2022-11-04T00:13:29.797Z,99863.44
2022-11-04T00:18:31.264Z,99877.31
2022-11-04T00:23:51.611Z,99891.44
2022-11-04T00:28:54.207Z,99885.75
2022-11-04T00:33:58.196Z,99895.84
2022-11-04T00:38:59.658Z,99898.13
2022-11-04T00:44:03.845Z,99903.31
2022-11-04T00:49:05.375Z,99908.16
2022-11-04T00:54:06.947Z,99910.38
2022-11-04T00:59:10.404Z,99924.84
2022-11-04T01:04:14.905Z,99938.03
2022-11-04T01:09:16.391Z,99938.63
2022-11-04T01:14:18.218Z,99946.19
2022-11-04T01:19:19.658Z,99944.59
2022-11-04T01:24:21.273Z,99966.72
2022-11-04T01:29:22.725Z,99975.16
2022-11-04T01:34:24.173Z,99978.75
2022-11-04T01:39:25.875Z,99987.31
2022-11-04T01:44:42.358Z,99996.34
2022-11-04T01:49:46.798Z,99996.75
2022-11-04T01:54:50.966Z,100006.34
2022-11-04T01:59:52.643Z,100017.25
2022-11-04T02:04:54.178Z,100023.09
2022-11-04T02:09:55.669Z,100035.91
2022-11-04T02:14:58.169Z,100054.53
2022-11-04T02:20:21.365Z,100061.88
2022-11-04T02:25:57.450Z,100069.91
2022-11-04T02:31:10.878Z,100077.25
2022-11-04T02:36:35.751Z,100083.06
2022-11-04T02:41:56.738Z,100086.44
2022-11-04T02:47:03.009Z,100090.91
2022-11-04T02:52:04.468Z,100091.53
2022-11-04T02:57:09.879Z,100100.78
2022-11-04T03:02:16.912Z,100118.38
2022-11-04T03:07:24.233Z,100138.66
2022-11-04T03:12:32.612Z,100143.97
2022-11-04T03:17:46.632Z,100147.13
2022-11-04T03:22:48.344Z,100144.88
2022-11-04T03:27:57.146Z,100151.63
2022-11-04T03:33:25.729Z,100164.56
2022-11-04T03:38:27.190Z,100162.88
2022-11-04T03:43:30.590Z,100157.59
2022-11-04T03:48:32.093Z,100165.47
2022-11-04T03:53:33.646Z,100167.50
2022-11-04T03:58:50.014Z,100174.34
2022-11-04T04:04:14.569Z,100189.00
2022-11-04T04:09:29.797Z,100193.09
2022-11-04T04:14:40.577Z,100204.00
2022-11-04T04:19:48.339Z,100201.13
2022-11-04T04:25:13.497Z,100199.25
2022-11-04T04:30:16.841Z,100216.94
2022-11-04T04:35:43.432Z,100221.16
2022-11-04T04:41:09.195Z,100234.44
2022-11-04T04:46:12.175Z,100240.94
2022-11-04T04:51:13.696Z,100257.63
2022-11-04T04:56:15.147Z,100259.63
2022-11-04T05:01:17.314Z,100262.38
2022-11-04T05:06:18.876Z,100263.38
2022-11-04T05:11:24.470Z,100265.59
2022-11-04T05:16:27.687Z,100260.84
2022-11-04T05:21:29.147Z,100267.69
2022-11-04T05:26:30.586Z,100290.00
2022-11-04T05:31:32.320Z,100282.97
2022-11-04T05:36:33.799Z,100288.78
2022-11-04T05:41:35.308Z,100297.47
2022-11-04T05:46:36.807Z,100300.91
2022-11-04T05:51:38.323Z,100315.19
2022-11-04T05:56:39.778Z,100317.97
2022-11-04T06:01:44.017Z,100323.75
2022-11-04T06:06:45.871Z,100329.22
2022-11-04T06:11:47.343Z,100338.75
2022-11-04T06:16:48.781Z,100338.41
2022-11-04T06:21:50.319Z,100345.56
2022-11-04T06:26:51.974Z,100342.19
2022-11-04T06:31:53.423Z,100357.63
2022-11-04T06:36:54.910Z,100361.25
2022-11-04T06:41:58.011Z,100362.09
2022-11-04T06:47:02.893Z,100372.31
2022-11-04T06:52:04.478Z,100371.97
2022-11-04T06:57:06.698Z,100378.44
2022-11-04T07:02:10.905Z,100386.81
2022-11-04T07:07:12.714Z,100390.72
2022-11-04T07:12:14.166Z,100397.19
2022-11-04T07:17:15.643Z,100415.56
2022-11-04T07:22:17.128Z,100422.84
2022-11-04T07:27:18.654Z,100429.66
2022-11-04T07:32:20.115Z,100432.03
2022-11-04T07:37:21.572Z,100443.28
2022-11-04T07:42:23.089Z,100451.97
2022-11-04T07:47:24.780Z,100460.16
2022-11-04T07:52:26.464Z,100474.63
2022-11-04T07:57:29.228Z,100470.53
2022-11-04T08:02:35.028Z,100469.34
2022-11-04T08:07:37.386Z,100473.78
2022-11-04T08:12:38.862Z,100480.91
2022-11-04T08:17:40.338Z,100481.25
2022-11-04T08:22:42.024Z,100502.81
2022-11-04T08:27:43.834Z,100491.56
2022-11-04T08:32:45.281Z,100504.47
2022-11-04T08:37:46.743Z,100500.72
2022-11-04T08:42:48.197Z,100508.19
2022-11-04T08:47:49.684Z,100510.19
2022-11-04T08:52:51.256Z,100520.16
2022-11-04T08:57:53.009Z,100514.88
2022-11-04T09:02:55.595Z,100519.19
2022-11-04T09:07:57.122Z,100508.34
2022-11-04T09:12:58.565Z,100512.81
2022-11-04T09:18:00.036Z,100514.63
2022-11-04T09:23:01.610Z,100519.75
2022-11-04T09:28:04.504Z,100537.59
2022-11-04T09:33:06.096Z,100541.50
2022-11-04T09:38:07.729Z,100545.09
2022-11-04T09:43:32.336Z,100559.97
2022-11-04T09:48:39.807Z,100574.31
2022-11-04T09:53:47.377Z,100578.50
2022-11-04T09:58:49.680Z,100586.84
2022-11-04T10:03:57.010Z,100599.53
2022-11-04T10:09:26.905Z,100614.09
2022-11-04T10:14:43.805Z,100625.59
2022-11-04T10:19:57.054Z,100638.81
2022-11-04T10:24:58.444Z,100639.78
2022-11-04T10:30:23.839Z,100635.88
2022-11-04T10:35:36.685Z,100652.16
2022-11-04T10:40:42.067Z,100659.69
2022-11-04T10:46:37.210Z,100677.28
2022-11-04T10:51:39.807Z,100675.09
2022-11-04T10:56:51.558Z,100692.75
2022-11-04T11:01:55.851Z,100702.31
2022-11-04T11:06:59.970Z,100698.22
2022-11-04T11:12:44.109Z,100702.34
2022-11-04T11:17:34.883Z,100703.19
2022-11-04T11:22:41.295Z,100705.44
2022-11-04T11:27:48.884Z,100711.69
2022-11-04T11:32:58.357Z,100717.75
2022-11-04T11:38:04.010Z,100734.28
2022-11-04T11:43:05.988Z,100730.25
2022-11-04T11:48:38.421Z,100745.72
2022-11-04T11:53:48.413Z,100738.97
2022-11-04T12:09:50.797Z,100743.50
2022-11-04T12:15:18.846Z,100756.19
2022-11-04T12:20:48.272Z,100768.16
2022-11-04T12:26:13.191Z,100782.03
2022-11-04T12:31:48.769Z,100774.41
2022-11-04T12:37:05.332Z,100779.44
2022-11-04T12:42:31.394Z,100783.88
2022-11-04T12:47:44.179Z,100792.31
2022-11-04T12:53:01.226Z,100798.34
2022-11-04T12:58:17.195Z,100789.50
2022-11-04T13:03:30.086Z,100794.00
2022-11-04T13:08:46.548Z,100804.59
2022-11-04T13:14:11.379Z,100808.88
2022-11-04T13:19:31.589Z,100813.81
2022-11-04T13:24:40.235Z,100816.19
2022-11-04T13:29:42.742Z,100821.06
2022-11-04T13:35:04.714Z,100829.09
2022-11-04T13:40:17.819Z,100846.66
2022-11-04T13:45:20.710Z,100849.16
2022-11-04T13:50:36.545Z,100855.69
2022-11-04T13:55:50.221Z,100849.69
2022-11-04T14:01:25.862Z,100860.44
2022-11-04T14:07:03.898Z,100871.88
2022-11-04T14:12:14.213Z,100876.97
2022-11-04T14:17:33.834Z,100889.78
2022-11-04T14:22:37.251Z,100888.94
2022-11-04T14:27:41.130Z,100891.84
2022-11-04T14:32:42.752Z,100903.13
2022-11-04T14:37:44.452Z,100913.34
2022-11-04T14:42:51.674Z,100928.78
2022-11-04T14:48:18.607Z,100937.53
2022-11-04T14:53:33.259Z,100940.44
2022-11-04T14:58:36.233Z,100930.06
2022-11-04T15:04:10.956Z,100943.38
2022-11-04T15:09:01.278Z,100932.47
2022-11-04T15:14:22.154Z,100936.75
2022-11-04T15:19:32.329Z,100947.66
2022-11-04T15:24:35.358Z,100955.84
2022-11-04T15:29:36.887Z,100951.25
2022-11-04T15:34:38.544Z,100964.22
2022-11-04T15:39:44.281Z,100968.47
2022-11-04T15:44:51.793Z,100975.47
2022-11-04T15:50:01.196Z,100989.59
2022-11-04T15:55:03.648Z,100990.59
2022-11-04T16:00:15.406Z,101003.22
2022-11-04T16:05:17.068Z,101002.13
2022-11-04T16:10:33.241Z,101005.00
2022-11-04T16:15:37.492Z,101016.03
2022-11-04T16:20:38.972Z,101017.34
2022-11-04T16:25:40.601Z,101037.72
2022-11-04T16:30:56.771Z,101037.16
2022-11-04T16:35:58.251Z,101051.59
2022-11-04T16:40:59.756Z,101046.47
2022-11-04T16:46:02.345Z,101066.03
2022-11-04T16:51:04.214Z,101072.66
2022-11-04T16:56:07.406Z,101064.63
2022-11-04T17:01:15.559Z,101070.41
2022-11-04T17:06:17.853Z,101078.28
2022-11-04T17:11:19.342Z,101079.94
2022-11-04T17:16:21.008Z,101085.69
2022-11-04T17:21:23.333Z,101094.41
2022-11-04T17:26:24.843Z,101092.75
2022-11-04T17:31:28.235Z,101113.69
2022-11-04T17:36:30.260Z,101116.06
2022-11-04T17:41:50.287Z,101129.00
2022-11-04T17:46:51.763Z,101129.28
2022-11-04T17:51:55.743Z,101132.63
2022-11-04T17:56:57.561Z,101136.41
2022-11-04T18:01:59.132Z,101138.00
2022-11-04T18:07:03.110Z,101146.31
2022-11-04T18:12:25.524Z,101155.53
2022-11-04T18:17:27.031Z,101150.25
2022-11-04T18:22:28.509Z,101163.44
2022-11-04T18:27:30.025Z,101160.75
2022-11-04T18:32:31.496Z,101167.19
2022-11-04T18:37:33.340Z,101175.50
2022-11-04T18:42:35.590Z,101174.50
2022-11-04T18:47:37.379Z,101170.78
2022-11-04T18:52:38.891Z,101179.94
2022-11-04T18:57:40.399Z,101187.66
2022-11-04T19:02:41.950Z,101198.09
2022-11-04T19:07:44.079Z,101203.09
2022-11-04T19:13:03.943Z,101203.22
2022-11-04T19:18:05.469Z,101211.38
2022-11-04T19:23:07.281Z,101217.53
2022-11-04T19:28:32.678Z,101219.09
2022-11-04T19:33:31.140Z,101227.69
2022-11-04T19:38:32.602Z,101223.44
2022-11-04T19:43:34.980Z,101231.59
2022-11-04T19:48:36.470Z,101234.00
2022-11-04T19:53:38.039Z,101244.88
2022-11-04T19:58:39.513Z,101246.19
2022-11-04T20:03:41.571Z,101233.00
2022-11-04T20:08:45.264Z,101234.84
2022-11-04T20:13:51.800Z,101240.97
2022-11-04T20:19:00.471Z,101238.69
2022-11-04T20:24:05.849Z,101245.16
2022-11-04T20:29:07.329Z,101263.03
2022-11-04T20:34:11.763Z,101258.78
2022-11-04T20:39:16.178Z,101282.09
2022-11-04T20:44:17.755Z,101277.50
2022-11-04T20:49:19.328Z,101282.06
2022-11-04T20:54:20.944Z,101288.66
2022-11-04T20:59:22.600Z,101300.63
2022-11-04T21:04:24.064Z,101303.44
2022-11-04T21:09:25.567Z,101312.59
2022-11-04T21:14:27.052Z,101315.44
2022-11-04T21:19:28.508Z,101311.72
2022-11-04T21:24:32.717Z,101316.53
2022-11-04T21:29:36.488Z,101328.56
2022-11-04T21:34:37.992Z,101357.53
2022-11-04T21:39:39.481Z,101375.59
2022-11-04T21:44:40.967Z,101373.53
2022-11-04T21:49:42.412Z,101375.44
2022-11-04T21:54:43.879Z,101371.72
2022-11-04T21:59:45.347Z,101378.72
2022-11-04T22:04:46.794Z,101385.47
2022-11-04T22:09:48.449Z,101379.16
2022-11-04T22:14:50.032Z,101397.06
2022-11-04T22:19:51.545Z,101395.47
2022-11-04T22:25:06.609Z,101384.91
2022-11-04T22:30:08.934Z,101372.59
2022-11-04T22:35:10.407Z,101372.16
2022-11-04T22:40:12.268Z,101385.16
2022-11-04T22:45:16.878Z,101387.28
2022-11-04T22:50:18.701Z,101373.97
2022-11-04T22:55:20.133Z,101378.66
2022-11-04T23:00:21.639Z,101373.06
2022-11-04T23:05:23.093Z,101384.16
2022-11-04T23:10:42.791Z,101377.66
2022-11-04T23:16:02.494Z,101391.94
2022-11-04T23:21:22.787Z,101410.16
2022-11-04T23:26:27.683Z,101397.53
2022-11-04T23:31:29.373Z,101396.47
2022-11-04T23:36:48.937Z,101399.59
2022-11-04T23:42:08.764Z,101397.41
2022-11-04T23:47:28.648Z,101401.13
2022-11-04T23:52:48.758Z,101396.59
2022-11-04T23:58:08.576Z,101396.28
